createdAt,value
2018-12-17T00:01:34.005Z,57.73
2018-12-17T00:04:00.846Z,66.97
2018-12-17T00:06:27.358Z,49.00
2018-12-17T00:08:53.961Z,49.97
2018-12-17T00:11:21.136Z,52.53
2018-12-17T00:13:47.616Z,51.43
2018-12-17T00:16:14.160Z,57.50
2018-12-17T00:18:40.937Z,58.00
2018-12-17T00:21:07.594Z,50.93
2018-12-17T00:23:34.142Z,55.70
2018-12-17T00:26:00.638Z,54.70
2018-12-17T00:28:27.212Z,52.50
2018-12-17T00:30:53.765Z,52.73
2018-12-17T00:33:20.363Z,53.53
2018-12-17T00:35:46.873Z,55.60
2018-12-17T00:38:13.392Z,55.53
2018-12-17T00:40:39.955Z,48.67
2018-12-17T00:43:06.831Z,52.67
2018-12-17T00:45:33.524Z,50.77
2018-12-17T00:48:00.135Z,56.47
2018-12-17T00:50:26.635Z,53.30
2018-12-17T00:52:53.743Z,48.50
2018-12-17T00:55:20.672Z,54.57
2018-12-17T00:57:47.177Z,56.63
2018-12-17T01:00:13.690Z,52.20
2018-12-17T01:05:36.899Z,51.83
2018-12-17T01:08:03.490Z,58.87
2018-12-17T01:10:29.988Z,49.60
2018-12-17T01:12:56.507Z,61.57
2018-12-17T01:15:23.277Z,51.33
2018-12-17T01:17:49.837Z,57.70
2018-12-17T01:20:16.374Z,59.40
2018-12-17T01:22:43.803Z,52.67
2018-12-17T01:25:10.455Z,51.87
2018-12-17T01:27:36.895Z,52.80
2018-12-17T01:30:04.840Z,46.70
2018-12-17T01:32:31.286Z,50.43
2018-12-17T01:34:57.755Z,54.53
2018-12-17T01:37:24.336Z,57.77
2018-12-17T01:39:50.858Z,51.70
2018-12-17T01:42:17.476Z,51.50
2018-12-17T01:44:44.286Z,56.60
2018-12-17T01:47:10.815Z,49.63
2018-12-17T01:49:37.387Z,51.50
2018-12-17T01:52:04.183Z,51.67
2018-12-17T01:54:30.754Z,51.27
2018-12-17T01:56:57.211Z,56.77
2018-12-17T01:59:23.988Z,57.67
2018-12-17T02:01:50.758Z,54.97
2018-12-17T02:04:17.347Z,53.90
2018-12-17T02:06:43.887Z,53.60
2018-12-17T02:09:10.459Z,53.90
2018-12-17T02:11:36.932Z,58.13
2018-12-17T02:14:03.738Z,54.63
2018-12-17T02:16:30.356Z,56.77
2018-12-17T02:18:56.918Z,50.70
2018-12-17T02:21:23.735Z,50.53
2018-12-17T02:23:50.538Z,54.90
2018-12-17T02:26:17.131Z,58.87
2018-12-17T02:28:43.891Z,57.73
2018-12-17T02:31:10.368Z,53.10
2018-12-17T02:33:36.832Z,51.70
2018-12-17T02:36:03.303Z,59.13
2018-12-17T02:38:29.783Z,50.10
2018-12-17T02:40:56.397Z,55.80
2018-12-17T02:43:23.179Z,56.90
2018-12-17T02:45:49.803Z,52.37
2018-12-17T02:48:16.315Z,55.40
2018-12-17T02:50:43.049Z,53.03
2018-12-17T02:53:09.541Z,55.40
2018-12-17T02:55:36.127Z,50.93
2018-12-17T02:58:02.669Z,54.90
2018-12-17T03:00:29.163Z,52.40
2018-12-17T03:02:55.764Z,51.30
2018-12-17T03:05:22.251Z,56.93
2018-12-17T03:07:48.779Z,51.40
2018-12-17T03:10:15.218Z,49.33
2018-12-17T03:12:41.772Z,54.27
2018-12-17T03:15:08.292Z,56.10
2018-12-17T03:17:34.914Z,54.47
2018-12-17T03:20:01.642Z,54.23
2018-12-17T03:22:28.151Z,50.30
2018-12-17T03:24:54.759Z,53.63
2018-12-17T03:27:21.261Z,56.90
2018-12-17T03:29:47.697Z,47.43
2018-12-17T03:32:14.198Z,50.70
2018-12-17T03:34:40.824Z,47.07
2018-12-17T03:37:07.336Z,53.00
2018-12-17T03:39:33.813Z,53.73
2018-12-17T03:42:00.541Z,50.40
2018-12-17T03:44:27.002Z,59.47
2018-12-17T03:46:53.512Z,57.87
2018-12-17T03:49:20.293Z,53.70
2018-12-17T03:51:46.765Z,56.93
2018-12-17T03:54:13.336Z,53.60
2018-12-17T03:56:39.823Z,54.87
2018-12-17T03:59:06.401Z,49.00
2018-12-17T04:01:32.858Z,55.07
2018-12-17T04:03:59.550Z,52.30
2018-12-17T04:06:26.131Z,50.23
2018-12-17T04:08:52.600Z,53.77
2018-12-17T04:11:19.397Z,52.83
2018-12-17T04:13:45.905Z,50.93
2018-12-17T04:16:12.399Z,49.87
2018-12-17T04:18:39.312Z,53.27
2018-12-17T04:21:05.843Z,52.80
2018-12-17T04:23:32.378Z,48.40
2018-12-17T04:25:58.865Z,51.33
2018-12-17T04:28:25.380Z,47.20
2018-12-17T04:30:51.846Z,54.93
2018-12-17T04:33:18.692Z,53.20
2018-12-17T04:35:45.199Z,55.77
2018-12-17T04:38:11.672Z,54.17
2018-12-17T04:40:38.353Z,52.70
2018-12-17T04:43:04.877Z,56.53
2018-12-17T04:45:31.310Z,55.27
2018-12-17T04:47:57.754Z,51.67
2018-12-17T04:50:24.227Z,54.27
2018-12-17T04:52:50.706Z,51.73
2018-12-17T04:55:17.445Z,58.57
2018-12-17T04:57:44.270Z,55.37
2018-12-17T05:00:10.739Z,55.60
2018-12-17T05:02:37.596Z,56.27
2018-12-17T05:05:04.196Z,56.50
2018-12-17T05:07:30.697Z,56.10
2018-12-17T05:09:57.186Z,52.97
2018-12-17T05:12:23.716Z,51.50
2018-12-17T05:14:50.277Z,51.90
2018-12-17T05:17:16.804Z,48.53
2018-12-17T05:19:43.249Z,60.97
2018-12-17T05:22:09.813Z,57.57
2018-12-17T05:24:36.352Z,52.37
2018-12-17T05:27:02.902Z,55.40
2018-12-17T05:29:29.431Z,49.50
2018-12-17T05:31:55.956Z,55.87
2018-12-17T05:34:22.448Z,51.80
2018-12-17T05:36:48.884Z,54.77
2018-12-17T05:39:15.360Z,50.80
2018-12-17T05:41:41.940Z,56.07
2018-12-17T05:44:08.400Z,59.07
2018-12-17T05:46:35.244Z,53.40
2018-12-17T05:49:03.403Z,49.17
2018-12-17T05:51:30.187Z,51.53
2018-12-17T05:53:56.973Z,51.70
2018-12-17T05:56:23.439Z,56.77
2018-12-17T05:58:49.899Z,54.50
2018-12-17T06:01:16.404Z,50.77
2018-12-17T06:03:42.883Z,54.27
2018-12-17T06:06:09.415Z,52.90
2018-12-17T06:08:36.288Z,52.10
2018-12-17T06:11:02.871Z,54.43
2018-12-17T06:13:29.376Z,55.83
2018-12-17T06:15:55.913Z,56.00
2018-12-17T06:18:22.423Z,51.70
2018-12-17T06:20:49.049Z,51.37
2018-12-17T06:23:15.531Z,52.87
2018-12-17T06:25:42.007Z,54.27
2018-12-17T06:28:08.491Z,58.13
2018-12-17T06:30:35.210Z,53.27
2018-12-17T06:33:01.608Z,55.97
2018-12-17T06:35:28.052Z,49.47
2018-12-17T06:37:54.824Z,55.50
2018-12-17T06:40:21.306Z,57.73
2018-12-17T06:42:47.779Z,57.00
2018-12-17T06:45:14.258Z,52.80
2018-12-17T06:47:40.848Z,50.80
2018-12-17T06:50:07.278Z,50.63
2018-12-17T06:52:33.783Z,50.67
2018-12-17T06:55:00.373Z,52.73
2018-12-17T06:57:26.884Z,54.20
2018-12-17T06:59:53.364Z,54.07
2018-12-17T07:02:20.275Z,52.37
2018-12-17T07:04:46.755Z,50.17
2018-12-17T07:07:13.486Z,59.63
2018-12-17T07:09:40.111Z,52.37
2018-12-17T07:12:06.585Z,60.57
2018-12-17T07:14:36.463Z,52.33
2018-12-17T07:17:01.703Z,56.67
2018-12-17T07:19:28.609Z,53.60
2018-12-17T07:21:55.335Z,53.07
2018-12-17T07:24:21.849Z,54.87
2018-12-17T07:26:48.327Z,55.17
2018-12-17T07:29:15.011Z,56.17
2018-12-17T07:31:41.458Z,58.63
2018-12-17T07:34:07.999Z,54.20
2018-12-17T07:36:34.739Z,50.47
2018-12-17T07:39:01.208Z,58.00
2018-12-17T07:41:27.683Z,54.13
2018-12-17T07:43:54.339Z,57.00
2018-12-17T07:46:20.816Z,58.50
2018-12-17T07:48:47.330Z,54.63
2018-12-17T07:51:14.034Z,51.07
2018-12-17T07:53:40.498Z,56.87
2018-12-17T07:56:07.015Z,58.10
2018-12-17T07:58:33.545Z,51.70
2018-12-17T08:01:00.058Z,55.10
2018-12-17T08:03:26.491Z,54.87
2018-12-17T08:05:53.321Z,53.43
2018-12-17T08:08:19.831Z,48.00
2018-12-17T08:10:46.294Z,51.00
2018-12-17T08:13:12.994Z,52.07
2018-12-17T08:15:39.540Z,54.40
2018-12-17T08:18:12.038Z,54.60
2018-12-17T08:20:38.849Z,55.40
2018-12-17T08:23:05.368Z,58.13
2018-12-17T08:25:31.791Z,53.70
2018-12-17T08:27:58.288Z,53.80
2018-12-17T08:30:24.731Z,53.57
2018-12-17T08:32:51.176Z,59.63
2018-12-17T08:35:17.672Z,57.97
2018-12-17T08:37:44.159Z,57.17
2018-12-17T08:40:10.616Z,49.77
2018-12-17T08:42:37.102Z,59.47
2018-12-17T08:45:10.519Z,51.33
2018-12-17T08:47:38.116Z,52.60
2018-12-17T08:50:11.525Z,55.47
2018-12-17T08:52:38.228Z,50.20
2018-12-17T08:55:04.774Z,54.57
2018-12-17T08:57:37.801Z,53.60
2018-12-17T08:59:59.949Z,51.93
2018-12-17T09:02:26.450Z,51.53
2018-12-17T09:04:52.972Z,50.27
2018-12-17T09:07:19.531Z,57.47
2018-12-17T09:09:45.995Z,53.33
2018-12-17T09:12:12.459Z,48.03
2018-12-17T09:14:39.008Z,52.97
2018-12-17T09:17:05.439Z,50.30
2018-12-17T09:19:31.864Z,49.70
2018-12-17T09:21:58.349Z,49.50
2018-12-17T09:24:24.779Z,55.60
2018-12-17T09:26:51.519Z,52.20
2018-12-17T09:29:18.299Z,46.83
2018-12-17T09:31:44.853Z,45.63
2018-12-17T09:34:11.481Z,48.30
2018-12-17T09:36:38.288Z,51.50
2018-12-17T09:39:06.071Z,53.57
2018-12-17T09:41:32.519Z,53.27
2018-12-17T09:43:59.000Z,55.50
2018-12-17T09:46:25.670Z,50.80
2018-12-17T09:48:52.304Z,49.70
2018-12-17T09:51:19.646Z,48.40
2018-12-17T09:53:46.591Z,51.13
2018-12-17T09:56:13.156Z,51.50
2018-12-17T09:58:39.848Z,52.30
2018-12-17T10:01:06.319Z,51.77
2018-12-17T10:03:32.969Z,53.10
2018-12-17T10:05:59.505Z,56.93
2018-12-17T10:08:25.985Z,47.87
2018-12-17T10:10:52.502Z,50.73
2018-12-17T10:13:19.060Z,55.33
2018-12-17T10:15:45.899Z,54.50
2018-12-17T10:18:13.829Z,55.67
2018-12-17T10:20:41.278Z,58.93
2018-12-17T10:23:07.746Z,56.33
2018-12-17T10:25:34.492Z,55.50
2018-12-17T10:28:01.172Z,56.97
2018-12-17T10:30:32.515Z,57.80
2018-12-17T10:32:56.237Z,53.57
2018-12-17T10:35:23.119Z,67.83
2018-12-17T10:37:49.647Z,60.37
2018-12-17T10:40:16.318Z,59.67
2018-12-17T10:42:43.475Z,53.90
2018-12-17T10:45:10.007Z,58.53
2018-12-17T10:47:36.584Z,59.27
2018-12-17T10:50:04.202Z,55.30
2018-12-17T10:52:30.660Z,55.87
2018-12-17T10:54:57.099Z,56.67
2018-12-17T10:57:23.913Z,58.17
2018-12-17T10:59:50.391Z,52.93
2018-12-17T11:02:26.899Z,56.03
2018-12-17T11:04:56.456Z,50.63
2018-12-17T11:07:22.922Z,60.67
2018-12-17T11:09:49.822Z,58.73
2018-12-17T11:12:16.292Z,61.90
2018-12-17T11:14:42.750Z,61.30
2018-12-17T11:17:09.466Z,62.43
2018-12-17T11:19:35.939Z,55.10
2018-12-17T11:22:02.507Z,63.37
2018-12-17T11:24:29.059Z,58.10
2018-12-17T11:26:55.572Z,61.73
2018-12-17T11:29:22.135Z,55.87
2018-12-17T11:31:48.759Z,61.13
2018-12-17T11:34:15.400Z,59.83
2018-12-17T11:36:41.903Z,61.10
2018-12-17T11:39:10.208Z,62.60
2018-12-17T11:41:36.847Z,58.43
2018-12-17T11:44:03.315Z,55.20
2018-12-17T11:46:29.795Z,57.07
2018-12-17T11:48:56.292Z,61.20
2018-12-17T11:51:22.712Z,57.27
2018-12-17T11:53:50.524Z,58.27
2018-12-17T11:56:17.479Z,61.53
2018-12-17T11:58:45.153Z,55.30
2018-12-17T12:01:12.380Z,65.20
2018-12-17T12:03:39.294Z,60.13
2018-12-17T12:06:05.875Z,63.07
2018-12-17T12:08:33.042Z,61.77
2018-12-17T12:11:00.271Z,59.20
2018-12-17T12:13:27.407Z,60.23
2018-12-17T12:15:54.242Z,62.47
2018-12-17T12:18:21.024Z,73.37
2018-12-17T12:20:47.475Z,69.10
2018-12-17T12:23:15.124Z,60.90
2018-12-17T12:25:42.841Z,63.13
2018-12-17T12:28:09.420Z,62.20
2018-12-17T12:30:36.645Z,61.00
2018-12-17T12:33:03.657Z,64.33
2018-12-17T12:35:30.702Z,65.70
2018-12-17T12:37:58.188Z,57.30
2018-12-17T12:40:26.622Z,62.70
2018-12-17T12:42:53.460Z,60.40
2018-12-17T12:45:20.434Z,59.53
2018-12-17T12:47:47.018Z,64.50
2018-12-17T12:50:13.643Z,55.33
2018-12-17T12:52:40.340Z,62.73
2018-12-17T12:55:06.945Z,55.67
2018-12-17T12:57:34.934Z,60.50
2018-12-17T13:00:02.001Z,63.00
2018-12-17T13:02:28.553Z,73.77
2018-12-17T13:04:55.848Z,59.90
2018-12-17T13:07:22.731Z,65.03
2018-12-17T13:09:49.333Z,63.47
2018-12-17T13:12:15.913Z,59.43
2018-12-17T13:14:42.565Z,64.10
2018-12-17T13:17:15.079Z,67.80
2018-12-17T13:19:41.564Z,63.67
2018-12-17T13:22:08.066Z,78.43
2018-12-17T13:24:34.626Z,70.23
2018-12-17T13:27:01.375Z,70.50
2018-12-17T13:29:27.855Z,72.47
2018-12-17T13:31:54.315Z,70.60
2018-12-17T13:34:20.747Z,75.57
2018-12-17T13:36:47.224Z,65.97
2018-12-17T13:39:13.675Z,67.23
2018-12-17T13:41:40.393Z,60.13
2018-12-17T13:44:06.845Z,61.20
2018-12-17T13:46:33.326Z,59.83
2018-12-17T13:48:59.902Z,63.33
2018-12-17T13:51:32.348Z,62.27
2018-12-17T13:53:59.827Z,65.27
2018-12-17T13:56:26.695Z,67.57
2018-12-17T13:58:53.176Z,67.00
2018-12-17T14:01:21.994Z,66.60
2018-12-17T14:03:48.671Z,75.40
2018-12-17T14:06:15.135Z,69.33
2018-12-17T14:08:41.842Z,64.63
2018-12-17T14:11:08.273Z,65.80
2018-12-17T14:13:34.739Z,65.03
2018-12-17T14:16:07.701Z,62.70
2018-12-17T14:18:40.291Z,64.97
2018-12-17T14:21:13.788Z,61.83
2018-12-17T14:23:40.383Z,57.30
2018-12-17T14:26:06.849Z,65.67
2018-12-17T14:28:33.824Z,64.40
2018-12-17T14:31:00.366Z,66.93
2018-12-17T14:33:26.918Z,60.90
2018-12-17T14:35:59.782Z,61.20
2018-12-17T14:38:26.243Z,65.97
2018-12-17T14:40:52.741Z,65.80
2018-12-17T14:43:19.211Z,60.60
2018-12-17T14:45:45.705Z,67.50
2018-12-17T14:48:12.236Z,63.13
2018-12-17T14:50:38.993Z,58.80
2018-12-17T14:53:05.705Z,61.60
2018-12-17T14:55:32.167Z,61.40
2018-12-17T14:57:58.834Z,65.10
2018-12-17T15:00:25.330Z,57.40
2018-12-17T15:02:51.840Z,66.87
2018-12-17T15:05:18.441Z,55.53
2018-12-17T15:07:44.979Z,62.43
2018-12-17T15:10:11.620Z,57.53
2018-12-17T15:12:38.156Z,58.73
2018-12-17T15:15:06.568Z,52.37
2018-12-17T15:17:33.092Z,60.33
2018-12-17T15:19:59.684Z,60.43
2018-12-17T15:22:26.268Z,60.20
2018-12-17T15:24:52.714Z,55.67
2018-12-17T15:27:19.293Z,53.10
2018-12-17T15:29:45.797Z,56.47
2018-12-17T15:32:12.364Z,59.77
2018-12-17T15:34:39.075Z,53.63
2018-12-17T15:37:05.678Z,57.70
2018-12-17T15:39:32.131Z,53.57
2018-12-17T15:41:58.948Z,56.77
2018-12-17T15:44:25.374Z,62.43
2018-12-17T15:46:51.790Z,58.77
2018-12-17T15:49:18.298Z,66.83
2018-12-17T15:51:44.763Z,53.40
2018-12-17T15:54:11.248Z,49.53
2018-12-17T15:56:38.156Z,53.27
2018-12-17T15:59:04.588Z,48.60
2018-12-17T16:01:31.144Z,58.43
2018-12-17T16:03:57.659Z,54.20
2018-12-17T16:06:24.148Z,48.93
2018-12-17T16:08:50.702Z,59.20
2018-12-17T16:11:17.438Z,50.73
2018-12-17T16:13:43.939Z,50.20
2018-12-17T16:16:10.391Z,49.07
2018-12-17T16:18:36.974Z,51.33
2018-12-17T16:21:03.584Z,50.20
2018-12-17T16:23:30.160Z,48.67
2018-12-17T16:25:56.983Z,48.10
2018-12-17T16:28:23.609Z,45.40
2018-12-17T16:30:50.174Z,46.57
2018-12-17T16:33:16.985Z,50.20
2018-12-17T16:35:43.447Z,47.10
2018-12-17T16:38:10.062Z,46.97
2018-12-17T16:40:36.768Z,46.50
2018-12-17T16:43:03.336Z,55.13
2018-12-17T16:45:29.754Z,47.27
2018-12-17T16:47:56.285Z,52.43
2018-12-17T16:50:22.694Z,50.27
2018-12-17T16:52:49.156Z,48.43
2018-12-17T16:55:15.804Z,54.00
2018-12-17T16:57:42.260Z,50.10
2018-12-17T17:00:09.492Z,50.40
2018-12-17T17:02:36.276Z,49.43
2018-12-17T17:05:03.128Z,45.47
2018-12-17T17:07:29.643Z,49.93
2018-12-17T17:09:58.238Z,48.87
2018-12-17T17:12:24.776Z,45.10
2018-12-17T17:14:51.337Z,50.13
2018-12-17T17:17:18.123Z,54.17
2018-12-17T17:19:50.672Z,67.90
2018-12-17T17:22:13.123Z,56.77
2018-12-17T17:24:39.821Z,58.43
2018-12-17T17:27:06.246Z,59.00
2018-12-17T17:29:32.746Z,55.33
2018-12-17T17:31:59.707Z,55.20
2018-12-17T17:34:26.181Z,63.87
2018-12-17T17:36:52.571Z,58.00
2018-12-17T17:39:19.215Z,56.30
2018-12-17T17:41:45.792Z,59.17
2018-12-17T17:44:12.259Z,65.10
2018-12-17T17:46:38.965Z,53.07
2018-12-17T17:49:05.489Z,61.53
2018-12-17T17:51:32.054Z,52.23
2018-12-17T17:53:58.639Z,57.93
2018-12-17T17:56:25.107Z,56.27
2018-12-17T17:58:51.619Z,60.30
2018-12-17T18:01:18.367Z,60.63
2018-12-17T18:03:44.885Z,59.33
2018-12-17T18:06:16.187Z,60.23
2018-12-17T18:08:40.127Z,62.90
2018-12-17T18:11:06.616Z,58.17
2018-12-17T18:13:33.136Z,59.23
2018-12-17T18:15:59.927Z,59.03
2018-12-17T18:18:26.420Z,54.17
2018-12-17T18:20:52.980Z,59.10
2018-12-17T18:23:19.484Z,59.53
2018-12-17T18:25:45.998Z,57.77
2018-12-17T18:28:12.463Z,65.73
2018-12-17T18:30:39.245Z,71.23
2018-12-17T18:33:05.663Z,63.33
2018-12-17T18:35:32.119Z,67.63
2018-12-17T18:37:58.657Z,61.90
2018-12-17T18:40:25.152Z,64.20
2018-12-17T18:42:51.750Z,65.00
2018-12-17T18:45:18.211Z,59.47
2018-12-17T18:47:44.703Z,75.23
2018-12-17T18:50:11.356Z,69.70
2018-12-17T18:52:38.163Z,57.00
2018-12-17T18:55:04.878Z,60.50
2018-12-17T18:57:31.746Z,55.33
2018-12-17T18:59:58.259Z,64.37
2018-12-17T19:02:24.779Z,53.50
2018-12-17T19:04:51.227Z,60.23
2018-12-17T19:07:18.102Z,66.80
2018-12-17T19:09:44.630Z,68.83
2018-12-17T19:12:11.128Z,62.27
2018-12-17T19:14:37.590Z,66.37
2018-12-17T19:17:04.107Z,73.53
2018-12-17T19:19:30.446Z,66.07
2018-12-17T19:21:57.252Z,69.53
2018-12-17T19:24:23.715Z,64.60
2018-12-17T19:26:50.213Z,64.83
2018-12-17T19:29:17.023Z,67.63
2018-12-17T19:31:43.549Z,59.97
2018-12-17T19:34:10.058Z,61.00
2018-12-17T19:36:36.622Z,63.00
2018-12-17T19:39:04.973Z,59.37
2018-12-17T19:41:31.523Z,57.57
2018-12-17T19:43:58.216Z,54.13
2018-12-17T19:46:24.693Z,65.80
2018-12-17T19:48:58.325Z,61.10
2018-12-17T19:51:24.738Z,61.20
2018-12-17T19:53:51.293Z,67.73
2018-12-17T19:56:17.841Z,69.67
2018-12-17T19:58:44.274Z,62.93
2018-12-17T20:01:10.699Z,61.43
2018-12-17T20:03:37.188Z,55.73
2018-12-17T20:06:03.639Z,61.67
2018-12-17T20:08:30.106Z,60.90
2018-12-17T20:10:56.657Z,65.57
2018-12-17T20:13:23.215Z,62.80
2018-12-17T20:15:49.876Z,63.80
2018-12-17T20:18:16.659Z,56.60
2018-12-17T20:20:43.136Z,56.07
2018-12-17T20:23:09.601Z,65.53
2018-12-17T20:25:36.417Z,56.77
2018-12-17T20:28:02.988Z,55.23
2018-12-17T20:30:29.464Z,55.13
2018-12-17T20:32:55.970Z,53.87
2018-12-17T20:35:22.398Z,64.30
2018-12-17T20:37:48.880Z,56.90
2018-12-17T20:40:15.510Z,57.20
2018-12-17T20:42:42.017Z,52.00
2018-12-17T20:45:08.544Z,50.20
2018-12-17T20:47:42.359Z,64.03
2018-12-17T20:50:08.820Z,52.73
2018-12-17T20:52:35.264Z,57.20
2018-12-17T20:55:01.781Z,64.53
2018-12-17T20:57:28.286Z,57.10
2018-12-17T20:59:54.748Z,53.23
2018-12-17T21:02:21.605Z,53.97
2018-12-17T21:04:48.091Z,53.23
2018-12-17T21:07:15.041Z,65.43
2018-12-17T21:09:48.454Z,60.37
2018-12-17T21:12:14.911Z,59.90
2018-12-17T21:14:48.205Z,52.00
2018-12-17T21:17:14.740Z,60.60
2018-12-17T21:19:41.208Z,60.23
2018-12-17T21:22:08.226Z,53.73
2018-12-17T21:24:34.760Z,56.63
2018-12-17T21:27:01.231Z,56.03
2018-12-17T21:29:27.798Z,53.47
2018-12-17T21:31:54.275Z,55.83
2018-12-17T21:34:20.713Z,59.67
2018-12-17T21:36:47.155Z,63.00
2018-12-17T21:39:14.048Z,74.00
2018-12-17T21:41:40.541Z,73.73
2018-12-17T21:44:07.000Z,62.97
2018-12-17T21:46:34.090Z,55.40
2018-12-17T21:49:00.738Z,64.07
2018-12-17T21:51:27.200Z,58.77
2018-12-17T21:53:53.760Z,63.07
2018-12-17T21:56:20.261Z,56.33
2018-12-17T21:58:46.711Z,55.53
2018-12-17T22:01:13.629Z,53.07
2018-12-17T22:03:40.154Z,53.40
2018-12-17T22:06:06.627Z,57.87
2018-12-17T22:08:33.396Z,67.17
2018-12-17T22:10:59.884Z,56.03
2018-12-17T22:13:27.103Z,55.17
2018-12-17T22:15:54.079Z,58.93
2018-12-17T22:18:20.551Z,59.53
2018-12-17T22:20:46.970Z,60.47
2018-12-17T22:23:13.492Z,62.83
2018-12-17T22:25:40.000Z,60.73
2018-12-17T22:28:06.591Z,59.30
2018-12-17T22:30:33.254Z,55.17
2018-12-17T22:32:59.717Z,56.67
2018-12-17T22:35:26.146Z,58.30
2018-12-17T22:37:52.826Z,66.60
2018-12-17T22:40:19.246Z,57.30
2018-12-17T22:42:45.840Z,57.53
2018-12-17T22:45:12.399Z,58.20
2018-12-17T22:47:38.830Z,49.50
2018-12-17T22:50:05.531Z,52.13
2018-12-17T22:52:32.295Z,57.23
2018-12-17T22:54:58.780Z,49.80
2018-12-17T22:57:25.298Z,49.50
2018-12-17T22:59:51.958Z,52.20
2018-12-17T23:02:18.508Z,52.17
2018-12-17T23:04:45.094Z,56.10
2018-12-17T23:07:11.951Z,55.10
2018-12-17T23:09:44.591Z,51.17
2018-12-17T23:12:17.252Z,63.60
2018-12-17T23:14:49.944Z,65.40
2018-12-17T23:17:22.829Z,51.87
2018-12-17T23:19:49.332Z,49.03
2018-12-17T23:22:15.997Z,52.37
2018-12-17T23:24:42.860Z,51.23
2018-12-17T23:27:09.515Z,50.13
2018-12-17T23:29:35.958Z,53.43
2018-12-17T23:32:03.615Z,49.73
2018-12-17T23:34:30.091Z,49.87
2018-12-17T23:36:56.712Z,50.43
2018-12-17T23:39:23.245Z,52.80
2018-12-17T23:41:49.793Z,47.90
2018-12-17T23:44:16.288Z,48.00
2018-12-17T23:46:43.783Z,49.17
2018-12-17T23:49:12.480Z,51.43
2018-12-17T23:51:40.039Z,48.80
2018-12-17T23:54:08.968Z,53.17
2018-12-17T23:56:35.685Z,52.37
